Time;durP1;ratioP1;P1;durP2;ratioP2;P2;SDS_P1;SDS_P2;PMS_P1;PMS_P2;Temp;Humidity;BMP_temperature;BMP_pressure;BME280_temperature;BME280_humidity;BME280_pressure;Samples;Min_cycle;Max_cycle;Signal;HPM_P1;HPM_P2
2023/07/26 00:00:31;;;;;;;83.27;33.43;;;15.60;99.90;;;;;;5117134;28;20205;-79
2023/07/26 00:02:57;;;;;;;79.90;33.77;;;15.60;99.90;;;;;;5116426;28;20173;-79
2023/07/26 00:05:22;;;;;;;81.30;36.70;;;15.60;99.90;;;;;;5116446;28;20161;-79
2023/07/26 00:07:48;;;;;;;82.50;38.87;;;15.60;99.90;;;;;;5116604;28;20706;-79
2023/07/26 00:10:14;;;;;;;82.50;34.33;;;15.60;99.90;;;;;;5118008;28;20181;-79
2023/07/26 00:12:39;;;;;;;87.00;47.20;;;15.60;99.90;;;;;;5117800;28;20206;-79
2023/07/26 00:15:05;;;;;;;84.90;41.07;;;15.60;99.90;;;;;;5118064;28;20166;-79
2023/07/26 00:17:31;;;;;;;82.60;37.63;;;15.60;99.90;;;;;;5118282;28;20240;-79
2023/07/26 00:19:57;;;;;;;83.93;38.77;;;15.60;99.90;;;;;;5118078;28;20435;-80
2023/07/26 00:22:22;;;;;;;80.50;34.40;;;15.60;99.90;;;;;;5117775;28;20651;-79
2023/07/26 00:24:48;;;;;;;83.63;36.30;;;15.60;99.90;;;;;;5118430;28;20164;-79
2023/07/26 00:27:17;;;;;;;82.37;34.13;;;15.60;99.90;;;;;;5100043;28;20171;-79
2023/07/26 00:29:43;;;;;;;82.57;36.83;;;15.60;99.90;;;;;;5117977;28;20629;-79
2023/07/26 00:32:08;;;;;;;81.93;35.73;;;15.50;99.90;;;;;;5117948;28;20435;-79
2023/07/26 00:34:35;;;;;;;83.40;39.53;;;15.50;99.90;;;;;;5099318;28;20502;-79
2023/07/26 00:37:03;;;;;;;80.93;33.07;;;15.60;99.90;;;;;;5116970;28;20208;-79
2023/07/26 00:39:29;;;;;;;83.97;33.57;;;15.60;99.90;;;;;;5097511;28;20436;-79
2023/07/26 00:41:55;;;;;;;80.97;31.57;;;15.70;99.90;;;;;;5116143;28;20894;-79
2023/07/26 00:44:21;;;;;;;82.53;32.93;;;15.60;99.90;;;;;;5097306;28;20406;-79
2023/07/26 00:46:47;;;;;;;79.50;29.73;;;15.70;99.90;;;;;;5098172;28;20168;-80
2023/07/26 00:49:13;;;;;;;77.77;27.30;;;15.70;99.90;;;;;;5116391;28;20229;-78
2023/07/26 00:51:40;;;;;;;78.90;26.40;;;15.70;99.90;;;;;;5116064;28;20897;-79
2023/07/26 00:54:07;;;;;;;77.20;26.53;;;15.70;99.90;;;;;;5098169;28;20409;-79
2023/07/26 00:56:33;;;;;;;76.73;25.60;;;15.60;99.90;;;;;;5098997;28;20407;-79
2023/07/26 00:58:59;;;;;;;80.60;28.00;;;15.70;99.90;;;;;;5117598;28;20864;-79
2023/07/26 01:01:26;;;;;;;84.40;27.70;;;15.60;99.90;;;;;;5117479;28;20399;-79
2023/07/26 01:03:52;;;;;;;78.40;23.70;;;15.60;99.90;;;;;;5117396;28;20402;-79
2023/07/26 01:06:34;;;;;;;77.77;24.03;;;15.60;99.90;;;;;;5117417;28;20394;-79
2023/07/26 01:09:19;;;;;;;77.63;21.80;;;15.60;99.90;;;;;;5117043;28;20207;-79
2023/07/26 01:11:56;;;;;;;77.20;24.00;;;15.60;99.90;;;;;;5099114;28;20402;-79
2023/07/26 01:14:45;;;;;;;78.30;20.90;;;15.60;99.90;;;;;;5117576;28;20410;-79
2023/07/26 01:17:10;;;;;;;80.67;22.47;;;15.60;99.90;;;;;;5121339;28;20478;-79
2023/07/26 01:19:36;;;;;;;75.90;21.27;;;15.60;99.90;;;;;;5123705;28;20449;-79
2023/07/26 01:22:02;;;;;;;75.93;21.23;;;15.60;99.90;;;;;;5124106;28;20709;-79
2023/07/26 01:24:27;;;;;;;75.43;20.03;;;15.60;99.90;;;;;;5123584;28;20161;-79
2023/07/26 01:26:53;;;;;;;77.57;18.97;;;15.60;99.90;;;;;;5124209;28;20161;-79
2023/07/26 01:29:19;;;;;;;77.40;19.83;;;15.60;99.90;;;;;;5124333;27;20196;-80
2023/07/26 01:31:45;;;;;;;76.57;18.37;;;15.60;99.90;;;;;;5124173;28;20688;-79
2023/07/26 01:34:12;;;;;;;76.30;18.97;;;15.50;99.90;;;;;;5124354;28;20165;-79
2023/07/26 01:36:38;;;;;;;77.00;19.43;;;15.50;99.90;;;;;;5123527;28;20392;-79
2023/07/26 01:39:05;;;;;;;78.50;19.13;;;15.50;99.90;;;;;;5123936;28;20420;-79
2023/07/26 01:41:31;;;;;;;78.27;18.10;;;15.60;99.90;;;;;;5124119;28;20462;-78
2023/07/26 01:43:57;;;;;;;75.67;20.23;;;15.60;99.90;;;;;;5123115;28;20401;-79
2023/07/26 01:46:22;;;;;;;75.97;17.60;;;15.50;99.90;;;;;;5123725;28;20394;-79
2023/07/26 01:48:48;;;;;;;73.50;16.80;;;15.60;99.90;;;;;;5123281;27;20190;-79
2023/07/26 01:51:14;;;;;;;75.80;16.63;;;15.60;99.90;;;;;;5122967;28;20258;-79
2023/07/26 01:53:39;;;;;;;75.47;14.00;;;15.50;99.90;;;;;;5124355;28;20238;-79
2023/07/26 01:56:05;;;;;;;74.10;16.30;;;15.50;99.90;;;;;;5123732;28;20169;-79
2023/07/26 01:58:31;;;;;;;75.17;15.23;;;15.50;99.90;;;;;;5105213;28;20189;-79
2023/07/26 02:00:56;;;;;;;76.37;16.37;;;15.50;99.90;;;;;;5124362;28;20543;-79
2023/07/26 02:03:22;;;;;;;74.67;13.50;;;15.50;99.90;;;;;;5123754;28;20196;-79
2023/07/26 02:05:48;;;;;;;77.00;15.20;;;15.40;99.90;;;;;;5123361;28;20166;-79
2023/07/26 02:08:17;;;;;;;73.30;15.70;;;15.30;99.90;;;;;;5179379;22;22011;-80
2023/07/26 02:10:43;;;;;;;75.77;13.93;;;15.30;99.90;;;;;;5103635;28;20460;-80
2023/07/26 02:13:09;;;;;;;74.33;16.20;;;15.30;99.90;;;;;;5122044;28;20896;-80
2023/07/26 02:15:35;;;;;;;74.97;15.77;;;15.30;99.90;;;;;;5121750;28;20642;-80
2023/07/26 02:18:00;;;;;;;74.03;16.73;;;15.30;99.90;;;;;;5119398;28;20557;-81
2023/07/26 02:20:26;;;;;;;74.90;14.97;;;15.30;99.90;;;;;;5100705;28;20485;-80
2023/07/26 02:22:53;;;;;;;75.87;15.37;;;15.30;99.90;;;;;;5100852;28;20173;-80
2023/07/26 02:25:19;;;;;;;75.73;17.10;;;15.30;99.90;;;;;;5100883;28;20215;-80
2023/07/26 02:27:44;;;;;;;78.13;17.10;;;15.40;99.90;;;;;;5080367;28;20931;-80
2023/07/26 02:30:10;;;;;;;73.33;15.53;;;15.40;99.90;;;;;;5078912;28;20712;-80
2023/07/26 02:32:36;;;;;;;75.47;16.80;;;15.30;99.90;;;;;;5097854;28;20243;-81
2023/07/26 02:35:01;;;;;;;74.07;15.63;;;15.30;99.90;;;;;;5097801;28;20397;-81
2023/07/26 02:37:27;;;;;;;74.53;15.83;;;15.30;99.90;;;;;;5098040;28;20164;-80
2023/07/26 02:39:53;;;;;;;75.50;15.40;;;15.30;99.90;;;;;;5078908;28;20241;-80
2023/07/26 02:42:18;;;;;;;77.00;15.67;;;15.30;99.90;;;;;;5079275;28;20163;-81
2023/07/26 02:44:48;;;;;;;76.70;17.20;;;15.20;99.90;;;;;;5097499;28;20241;-81
2023/07/26 02:47:14;;;;;;;76.00;16.73;;;15.20;99.90;;;;;;5078669;28;20182;-81
2023/07/26 02:49:39;;;;;;;74.70;15.30;;;15.20;99.90;;;;;;5097078;28;20446;-80
2023/07/26 02:52:05;;;;;;;73.73;16.10;;;15.20;99.90;;;;;;5097107;28;20682;-81
2023/07/26 02:54:31;;;;;;;76.20;16.10;;;15.20;99.90;;;;;;5097296;28;20196;-81
2023/07/26 02:56:57;;;;;;;75.27;17.47;;;15.20;99.90;;;;;;5097402;28;20392;-81
2023/07/26 02:59:22;;;;;;;77.80;16.00;;;15.20;99.90;;;;;;5097125;28;20223;-81
2023/07/26 03:01:49;;;;;;;77.17;17.60;;;15.20;99.90;;;;;;5096819;28;20208;-80
2023/07/26 03:04:14;;;;;;;75.63;17.13;;;15.30;99.90;;;;;;5097418;28;20168;-81
2023/07/26 03:06:40;;;;;;;78.90;17.33;;;15.20;99.90;;;;;;5078866;28;20427;-81
2023/07/26 03:09:06;;;;;;;77.70;17.33;;;15.20;99.90;;;;;;5096469;28;20287;-80
2023/07/26 03:11:32;;;;;;;78.47;18.13;;;15.20;99.90;;;;;;5097312;28;20426;-81
2023/07/26 03:13:58;;;;;;;80.97;15.60;;;15.20;99.90;;;;;;5096629;28;20639;-80
2023/07/26 03:16:23;;;;;;;75.70;14.83;;;15.20;99.90;;;;;;5096837;28;20628;-80
2023/07/26 03:18:49;;;;;;;75.60;16.00;;;15.20;99.90;;;;;;5096593;28;20185;-81
2023/07/26 03:21:15;;;;;;;74.40;16.40;;;15.20;99.90;;;;;;5096552;28;20158;-81
2023/07/26 03:23:40;;;;;;;75.20;16.70;;;15.20;99.90;;;;;;5096823;28;20161;-80
2023/07/26 03:26:06;;;;;;;76.57;15.97;;;15.20;99.90;;;;;;5096944;28;20629;-80
2023/07/26 03:28:32;;;;;;;79.70;18.80;;;15.20;99.90;;;;;;5096635;28;20181;-80
2023/07/26 03:30:59;;;;;;;78.50;18.20;;;15.20;99.90;;;;;;5096236;28;20446;-81
2023/07/26 03:33:25;;;;;;;77.20;16.60;;;15.20;99.90;;;;;;5096403;28;20164;-80
2023/07/26 03:35:51;;;;;;;77.20;18.60;;;15.20;99.90;;;;;;5078213;28;20469;-81
2023/07/26 03:38:17;;;;;;;82.93;16.70;;;15.10;99.90;;;;;;5096223;28;20685;-80
2023/07/26 03:40:43;;;;;;;83.43;19.00;;;15.10;99.90;;;;;;5096292;28;20407;-81
2023/07/26 03:43:08;;;;;;;78.40;19.33;;;15.10;99.90;;;;;;5096236;28;20570;-80
2023/07/26 03:45:34;;;;;;;75.10;17.07;;;15.10;99.90;;;;;;5096060;28;20251;-80
2023/07/26 03:48:00;;;;;;;76.80;19.20;;;15.10;99.90;;;;;;5077867;28;20180;-81
2023/07/26 03:50:26;;;;;;;75.63;18.00;;;15.10;99.90;;;;;;5077799;28;20437;-81
2023/07/26 03:52:52;;;;;;;75.87;19.70;;;15.10;99.90;;;;;;5077578;28;20172;-81
2023/07/26 03:55:17;;;;;;;84.13;18.63;;;15.00;99.90;;;;;;5096263;28;20402;-81
2023/07/26 03:57:43;;;;;;;77.60;16.27;;;15.00;99.90;;;;;;5077845;28;20163;-80
2023/07/26 04:00:10;;;;;;;75.97;16.03;;;15.00;99.90;;;;;;5095927;28;20184;-80
2023/07/26 04:02:35;;;;;;;75.10;16.60;;;15.00;99.90;;;;;;5077714;28;20416;-81
2023/07/26 04:05:01;;;;;;;76.60;15.83;;;15.00;99.90;;;;;;5095725;28;20402;-80
2023/07/26 04:07:27;;;;;;;81.10;17.43;;;15.10;99.90;;;;;;5095752;28;20235;-80
2023/07/26 04:09:52;;;;;;;75.67;16.57;;;15.10;99.90;;;;;;5095631;28;20312;-81
2023/07/26 04:12:18;;;;;;;75.37;17.47;;;15.10;99.90;;;;;;5077612;28;20172;-81
2023/07/26 04:14:44;;;;;;;76.30;18.40;;;15.10;99.90;;;;;;5096326;28;20187;-80
2023/07/26 04:17:09;;;;;;;79.20;16.90;;;15.00;99.90;;;;;;5096051;28;20168;-80
2023/07/26 04:19:35;;;;;;;77.17;16.83;;;14.90;99.90;;;;;;5095930;28;20198;-81
2023/07/26 04:22:01;;;;;;;75.50;16.70;;;15.00;99.90;;;;;;5095655;28;20167;-80
2023/07/26 04:24:26;;;;;;;76.73;15.70;;;14.90;99.90;;;;;;5077603;28;20172;-81
2023/07/26 04:26:55;;;;;;;74.90;15.97;;;14.90;99.90;;;;;;5095764;28;20191;-80
2023/07/26 04:29:21;;;;;;;75.47;14.83;;;15.00;99.90;;;;;;5095813;28;20197;-80
2023/07/26 04:31:47;;;;;;;76.57;17.83;;;14.90;99.90;;;;;;5095621;28;20892;-80
2023/07/26 04:34:14;;;;;;;75.90;16.83;;;14.90;99.90;;;;;;5095408;28;20413;-81
2023/07/26 04:36:41;;;;;;;78.20;16.43;;;15.00;99.90;;;;;;5095187;28;20218;-80
2023/07/26 04:39:06;;;;;;;76.77;16.13;;;15.00;99.90;;;;;;5095065;28;20557;-81
2023/07/26 04:41:32;;;;;;;75.57;16.30;;;15.00;99.90;;;;;;5095764;28;20826;-80
2023/07/26 04:43:58;;;;;;;76.33;16.13;;;15.00;99.90;;;;;;5095343;28;20706;-80
2023/07/26 04:46:23;;;;;;;75.87;14.80;;;15.00;99.90;;;;;;5095169;28;20165;-80
2023/07/26 04:48:49;;;;;;;74.50;16.47;;;14.90;99.90;;;;;;5095428;28;20639;-81
2023/07/26 04:51:15;;;;;;;74.47;18.50;;;14.80;99.90;;;;;;5076219;28;20216;-81
2023/07/26 04:53:41;;;;;;;74.67;15.27;;;14.80;99.90;;;;;;5095355;28;20165;-80
2023/07/26 04:56:06;;;;;;;74.40;16.00;;;14.90;99.90;;;;;;5077104;28;20533;-80
2023/07/26 04:58:32;;;;;;;74.90;14.53;;;15.00;99.90;;;;;;5076689;28;20278;-81
2023/07/26 05:00:58;;;;;;;72.77;13.03;;;15.00;99.90;;;;;;5095393;28;20159;-81
2023/07/26 05:03:24;;;;;;;74.27;14.00;;;15.10;99.90;;;;;;5095667;28;20243;-80
2023/07/26 05:05:50;;;;;;;72.40;13.20;;;15.30;99.90;;;;;;5095562;28;20447;-80
2023/07/26 05:08:17;;;;;;;73.67;15.37;;;15.30;99.90;;;;;;5095433;28;20211;-80
2023/07/26 05:10:43;;;;;;;72.37;14.30;;;15.40;99.90;;;;;;5095452;28;20449;-81
2023/07/26 05:13:08;;;;;;;74.80;15.37;;;15.40;99.90;;;;;;5095242;28;20401;-81
2023/07/26 05:15:34;;;;;;;74.57;12.63;;;15.40;99.90;;;;;;5077292;28;20168;-81
2023/07/26 05:17:59;;;;;;;80.40;12.40;;;15.50;99.90;;;;;;5078398;28;20172;-81
2023/07/26 05:20:25;;;;;;;73.57;13.60;;;15.50;99.90;;;;;;5096744;28;20160;-81
2023/07/26 05:22:51;;;;;;;72.97;15.50;;;15.50;99.90;;;;;;5078262;28;20239;-81
2023/07/26 05:25:18;;;;;;;74.07;13.60;;;15.60;99.90;;;;;;5096398;28;20183;-81
2023/07/26 05:27:44;;;;;;;75.90;15.60;;;15.60;99.90;;;;;;5095729;28;20169;-81
2023/07/26 05:30:10;;;;;;;72.77;11.60;;;15.70;99.90;;;;;;5077915;28;20574;-81
2023/07/26 05:32:36;;;;;;;72.40;13.63;;;15.80;99.90;;;;;;5078918;28;20215;-81
2023/07/26 05:35:02;;;;;;;73.83;14.30;;;15.80;99.90;;;;;;5096195;28;20407;-81
2023/07/26 05:37:30;;;;;;;71.67;12.90;;;15.90;99.90;;;;;;5078761;28;20189;-81
2023/07/26 05:39:56;;;;;;;75.90;19.73;;;15.90;99.90;;;;;;5078061;28;20587;-81
2023/07/26 05:42:21;;;;;;;76.00;17.63;;;15.90;99.90;;;;;;5096348;28;20450;-81
2023/07/26 05:44:47;;;;;;;74.30;17.10;;;15.90;99.90;;;;;;5096705;28;20168;-81
2023/07/26 05:47:14;;;;;;;76.00;15.73;;;15.90;99.90;;;;;;5096674;28;20215;-81
2023/07/26 05:49:43;;;;;;;76.07;15.17;;;16.00;99.90;;;;;;5096558;28;20643;-81
2023/07/26 05:52:10;;;;;;;74.37;17.00;;;16.00;99.90;;;;;;5095935;28;20404;-82
2023/07/26 05:54:36;;;;;;;78.63;23.40;;;16.10;99.90;;;;;;5095470;28;20963;-82
2023/07/26 05:57:02;;;;;;;76.40;18.27;;;16.10;99.90;;;;;;5095474;28;20894;-82
2023/07/26 05:59:27;;;;;;;77.83;20.70;;;16.00;99.90;;;;;;5076840;28;20430;-82
2023/07/26 06:01:53;;;;;;;76.07;23.10;;;16.00;99.90;;;;;;5095419;28;20768;-82
2023/07/26 06:04:19;;;;;;;76.03;18.40;;;16.10;99.90;;;;;;5099356;28;20171;-82
2023/07/26 06:06:45;;;;;;;75.47;19.73;;;16.10;99.90;;;;;;5099081;28;20622;-82
2023/07/26 06:09:11;;;;;;;78.10;24.37;;;16.10;99.90;;;;;;5099070;28;20208;-82
2023/07/26 06:11:37;;;;;;;76.83;24.30;;;16.20;99.90;;;;;;5099180;28;20415;-82
2023/07/26 06:14:03;;;;;;;78.27;21.60;;;16.20;99.90;;;;;;5081168;28;20415;-83
2023/07/26 06:16:28;;;;;;;77.17;22.77;;;16.20;99.90;;;;;;5081127;28;20450;-83
2023/07/26 06:18:54;;;;;;;77.50;20.63;;;16.20;99.90;;;;;;5099669;28;20229;-82
2023/07/26 06:21:20;;;;;;;78.87;21.20;;;16.30;99.90;;;;;;5098985;28;20179;-82
2023/07/26 06:23:46;;;;;;;76.30;21.57;;;16.40;99.90;;;;;;5099417;28;20173;-83
2023/07/26 06:26:12;;;;;;;77.07;24.77;;;16.40;99.90;;;;;;5099189;28;20165;-83
2023/07/26 06:28:38;;;;;;;80.63;22.97;;;16.50;99.90;;;;;;5099223;28;20428;-83
2023/07/26 06:31:04;;;;;;;81.97;25.80;;;16.70;99.90;;;;;;5099070;28;20449;-83
2023/07/26 06:33:29;;;;;;;76.40;19.97;;;16.80;99.90;;;;;;5099602;28;20404;-82
2023/07/26 06:35:55;;;;;;;82.80;31.67;;;17.00;99.90;;;;;;5081186;28;20173;-82
2023/07/26 06:38:21;;;;;;;85.13;47.73;;;17.10;98.60;;;;;;5099112;28;20186;-82
2023/07/26 06:40:47;;;;;;;86.30;49.90;;;17.10;96.90;;;;;;5098862;28;20764;-82
2023/07/26 06:43:14;;;;;;;87.00;44.10;;;17.20;93.00;;;;;;5099022;28;20767;-82
2023/07/26 06:45:45;;;;;;;84.83;46.60;;;17.20;93.50;;;;;;5098468;28;20441;-82
2023/07/26 06:48:10;;;;;;;85.53;41.63;;;17.30;93.20;;;;;;5098602;28;20483;-82
2023/07/26 06:50:40;;;;;;;80.27;33.20;;;17.30;87.60;;;;;;5098187;28;20445;-82
2023/07/26 06:53:06;;;;;;;83.97;36.57;;;17.20;87.30;;;;;;5098922;28;20175;-83
2023/07/26 06:55:34;;;;;;;91.57;42.87;;;17.20;87.20;;;;;;5098472;28;20425;-82
2023/07/26 06:58:00;;;;;;;82.37;39.97;;;17.20;91.40;;;;;;5099066;28;20405;-82
2023/07/26 07:00:25;;;;;;;79.87;29.27;;;17.20;82.80;;;;;;5080316;28;20978;-82
2023/07/26 07:03:02;;;;;;;83.63;40.17;;;17.20;82.40;;;;;;5099041;28;20504;-83
2023/07/26 07:05:29;;;;;;;82.87;41.13;;;17.20;91.50;;;;;;5063853;28;20179;-82
2023/07/26 07:07:55;;;;;;;87.10;47.93;;;17.10;93.10;;;;;;5080575;28;20409;-82
2023/07/26 07:10:22;;;;;;;84.27;42.73;;;17.10;91.70;;;;;;5098545;28;21108;-82
2023/07/26 07:12:48;;;;;;;83.53;40.10;;;17.20;90.20;;;;;;5098540;28;20192;-82
2023/07/26 07:15:14;;;;;;;91.80;40.80;;;17.20;90.90;;;;;;5079271;28;20409;-83
2023/07/26 07:17:40;;;;;;;83.33;40.87;;;17.20;88.00;;;;;;5098365;28;20410;-83
2023/07/26 07:20:07;;;;;;;81.73;37.50;;;17.20;90.00;;;;;;5098541;28;20662;-82
2023/07/26 07:22:33;;;;;;;87.40;39.97;;;17.30;88.00;;;;;;5080174;28;20265;-82
2023/07/26 07:24:59;;;;;;;82.93;39.03;;;17.30;83.80;;;;;;5098424;28;20795;-82
2023/07/26 07:27:25;;;;;;;83.37;41.60;;;17.20;84.00;;;;;;5098396;28;20401;-82
2023/07/26 07:29:51;;;;;;;83.77;42.17;;;17.20;88.70;;;;;;5097852;28;20721;-82
2023/07/26 07:32:17;;;;;;;83.97;42.13;;;17.10;91.10;;;;;;5079858;28;20409;-82
2023/07/26 07:34:43;;;;;;;87.40;45.77;;;17.30;90.00;;;;;;5097966;28;20903;-82
2023/07/26 07:37:09;;;;;;;86.83;42.27;;;17.20;88.70;;;;;;5099589;28;20223;-81
2023/07/26 07:39:35;;;;;;;89.63;43.07;;;17.20;87.50;;;;;;5064064;28;20942;-81
2023/07/26 07:42:01;;;;;;;82.23;35.00;;;17.20;92.70;;;;;;5098855;28;20466;-81
2023/07/26 07:44:30;;;;;;;87.07;46.27;;;17.20;93.20;;;;;;5098818;28;20173;-81
2023/07/26 07:46:56;;;;;;;84.30;41.60;;;17.30;89.40;;;;;;5098785;28;20414;-81
2023/07/26 07:49:22;;;;;;;83.17;39.63;;;17.30;90.40;;;;;;5098649;28;20512;-81
2023/07/26 07:51:48;;;;;;;86.83;44.20;;;17.40;92.50;;;;;;5098443;28;20429;-81
2023/07/26 07:54:13;;;;;;;86.53;45.10;;;17.50;90.40;;;;;;5080499;28;20804;-81
2023/07/26 07:56:39;;;;;;;87.77;44.60;;;17.50;85.80;;;;;;5098495;28;20166;-81
2023/07/26 07:59:06;;;;;;;84.87;41.90;;;17.50;89.90;;;;;;5098824;28;20175;-82
2023/07/26 08:01:32;;;;;;;83.63;43.17;;;17.50;89.80;;;;;;5098981;28;20397;-82
2023/07/26 08:04:01;;;;;;;84.87;46.40;;;17.70;87.90;;;;;;5080505;28;20785;-82
2023/07/26 08:06:27;;;;;;;81.90;28.30;;;17.70;85.60;;;;;;5081164;28;20410;-81
2023/07/26 08:08:53;;;;;;;80.40;31.83;;;17.90;92.70;;;;;;5079067;28;20597;-82
2023/07/26 08:11:19;;;;;;;86.80;43.10;;;18.10;93.80;;;;;;5098109;28;20169;-82
2023/07/26 08:13:48;;;;;;;84.73;43.27;;;18.20;81.50;;;;;;5097996;28;20173;-82
2023/07/26 08:16:13;;;;;;;86.90;34.93;;;18.20;73.30;;;;;;5097982;28;20908;-82
2023/07/26 08:18:39;;;;;;;87.63;31.47;;;18.30;62.40;;;;;;5097414;28;20429;-82
2023/07/26 08:21:05;;;;;;;75.63;17.03;;;18.30;68.60;;;;;;5097746;28;20398;-81
2023/07/26 08:23:31;;;;;;;79.10;18.03;;;18.40;54.10;;;;;;5097107;28;20163;-82
2023/07/26 08:26:04;;;;;;;72.47;10.03;;;18.40;56.30;;;;;;5078706;28;20417;-82
2023/07/26 08:28:30;;;;;;;71.57;8.13;;;18.50;56.70;;;;;;5097716;28;20441;-81
2023/07/26 08:30:57;;;;;;;75.10;9.40;;;18.60;49.90;;;;;;5098229;28;20979;-81
2023/07/26 08:33:23;;;;;;;75.63;11.97;;;18.60;52.00;;;;;;5098499;28;20382;-81
2023/07/26 08:35:48;;;;;;;72.87;8.83;;;18.60;55.00;;;;;;5098385;28;20400;-82
2023/07/26 08:38:14;;;;;;;72.47;7.03;;;18.70;46.00;;;;;;5098372;28;20175;-82
2023/07/26 08:40:48;;;;;;;72.63;6.03;;;18.80;46.30;;;;;;5079615;28;20183;-82
2023/07/26 08:43:16;;;;;;;74.17;6.80;;;19.00;39.80;;;;;;5097827;28;20250;-81
2023/07/26 08:45:43;;;;;;;71.17;6.43;;;19.10;40.40;;;;;;5079668;28;20428;-81
2023/07/26 08:48:09;;;;;;;70.97;6.90;;;19.20;25.50;;;;;;5097996;28;20432;-81
2023/07/26 08:50:38;;;;;;;76.70;8.33;;;19.10;13.00;;;;;;5099108;28;20962;-82
2023/07/26 08:53:09;;;;;;;73.13;9.90;;;19.00;15.30;;;;;;5098848;28;20408;-81
2023/07/26 08:55:35;;;;;;;72.37;8.43;;;19.20;17.60;;;;;;5076218;28;20497;-81
2023/07/26 08:58:02;;;;;;;75.03;12.57;;;19.30;16.80;;;;;;5080457;28;20409;-81
2023/07/26 09:00:31;;;;;;;75.20;12.00;;;19.40;10.70;;;;;;5080084;28;20446;-82
2023/07/26 09:03:02;;;;;;;76.30;16.93;;;19.50;2.70;;;;;;5079813;28;20420;-81
2023/07/26 09:05:28;;;;;;;71.27;7.90;;;19.50;2.30;;;;;;5079853;28;20409;-81
2023/07/26 09:07:54;;;;;;;74.17;9.77;;;19.70;1.00;;;;;;5079825;28;20933;-81
2023/07/26 09:10:29;;;;;;;77.00;6.90;;;19.80;1.00;;;;;;5096862;28;20643;-82
2023/07/26 09:13:08;;;;;;;73.97;9.50;;;19.80;1.00;;;;;;5098167;28;20413;-82
2023/07/26 09:15:38;;;;;;;74.03;6.93;;;19.70;1.30;;;;;;5098154;28;20405;-82
2023/07/26 09:18:05;;;;;;;72.90;7.63;;;19.60;1.00;;;;;;5079160;28;20389;-82
2023/07/26 09:20:31;;;;;;;73.30;9.93;;;19.50;1.00;;;;;;5097330;28;20409;-82
2023/07/26 09:23:10;;;;;;;75.40;11.13;;;19.30;5.80;;;;;;5080002;28;20409;-82
2023/07/26 09:25:42;;;;;;;72.67;6.47;;;19.20;9.90;;;;;;5079639;28;20389;-82
2023/07/26 09:28:10;;;;;;;72.17;8.33;;;19.10;1.00;;;;;;5097797;28;20416;-82
2023/07/26 09:30:37;;;;;;;70.90;8.13;;;19.20;1.00;;;;;;5097716;28;20448;-83
2023/07/26 09:33:06;;;;;;;73.77;9.20;;;19.30;1.00;;;;;;5079842;28;20493;-82
2023/07/26 09:35:41;;;;;;;75.63;9.83;;;19.50;1.00;;;;;;5079788;28;20508;-82
2023/07/26 09:38:18;;;;;;;78.25;15.48;;;19.70;1.00;;;;;;5080811;28;20573;-82
2023/07/26 09:40:44;;;;;;;78.03;14.37;;;19.70;1.00;;;;;;5101749;28;20151;-81
2023/07/26 09:43:10;;;;;;;79.00;16.73;;;19.90;1.00;;;;;;5101688;28;20397;-82
2023/07/26 09:45:36;;;;;;;81.20;24.90;;;20.10;1.00;;;;;;5083139;28;20408;-82
2023/07/26 09:48:07;;;;;;;82.00;19.67;;;20.20;1.00;;;;;;5083229;28;20175;-81
2023/07/26 09:50:33;;;;;;;79.73;25.47;;;20.50;1.00;;;;;;5101499;28;20451;-82
2023/07/26 09:52:58;;;;;;;80.13;29.10;;;20.60;1.00;;;;;;5101547;28;20906;-82
2023/07/26 09:55:26;;;;;;;81.30;30.10;;;20.60;1.00;;;;;;5101289;28;20244;-81
2023/07/26 09:57:53;;;;;;;82.77;34.63;;;20.60;1.00;;;;;;5101048;28;20683;-82
2023/07/26 10:00:21;;;;;;;81.10;32.30;;;20.80;1.00;;;;;;5102139;28;20401;-83
2023/07/26 10:02:57;;;;;;;73.37;7.67;;;20.80;1.00;;;;;;5101905;28;20402;-82
2023/07/26 10:05:25;;;;;;;72.30;6.13;;;21.00;1.00;;;;;;5102270;28;20385;-83
2023/07/26 10:07:52;;;;;;;71.10;6.40;;;21.10;1.00;;;;;;5101898;28;20924;-82
2023/07/26 10:10:19;;;;;;;71.53;7.70;;;21.30;1.00;;;;;;5083943;28;20452;-83
2023/07/26 10:12:46;;;;;;;76.27;6.37;;;21.30;1.00;;;;;;5083821;28;20405;-83
2023/07/26 10:15:16;;;;;;;74.33;5.00;;;21.50;1.00;;;;;;5101500;28;20429;-83
2023/07/26 10:17:47;;;;;;;74.03;5.87;;;21.30;1.00;;;;;;5083492;28;20478;-83
2023/07/26 10:20:13;;;;;;;73.10;10.20;;;21.10;1.00;;;;;;5101421;28;20385;-82
2023/07/26 10:22:41;;;;;;;71.57;4.70;;;20.80;1.00;;;;;;5083053;28;20821;-82
2023/07/26 10:25:07;;;;;;;75.57;5.90;;;20.60;1.00;;;;;;5101632;28;20410;-82
2023/07/26 10:27:33;;;;;;;70.77;5.03;;;20.40;1.00;;;;;;5101315;28;20407;-83
2023/07/26 10:29:59;;;;;;;73.87;6.00;;;20.20;1.00;;;;;;5082347;28;20812;-82
2023/07/26 10:32:24;;;;;;;81.67;11.37;;;20.00;1.00;;;;;;5101590;28;20394;-83
2023/07/26 10:34:57;;;;;;;77.20;11.97;;;19.90;1.00;;;;;;5101650;28;20473;-83
2023/07/26 10:37:23;;;;;;;72.30;9.50;;;19.80;1.00;;;;;;5082957;28;20260;-82
2023/07/26 10:39:49;;;;;;;75.87;10.63;;;19.80;1.00;;;;;;5082906;28;20463;-82
2023/07/26 10:42:27;;;;;;;76.90;19.43;;;19.80;1.00;;;;;;5082776;28;20459;-83
2023/07/26 10:45:03;;;;;;;77.10;15.67;;;19.70;1.00;;;;;;5101260;28;20430;-83
2023/07/26 10:47:29;;;;;;;74.87;14.53;;;20.00;1.00;;;;;;5101157;28;20868;-83
2023/07/26 10:50:05;;;;;;;78.30;22.60;;;20.10;1.00;;;;;;5099974;28;20476;-84
2023/07/26 10:52:41;;;;;;;78.00;22.10;;;20.10;1.00;;;;;;5100747;28;20380;-82
2023/07/26 10:55:39;;;;;;;74.83;20.17;;;20.00;1.00;;;;;;5100988;28;20386;-82
2023/07/26 10:58:12;;;;;;;74.30;12.10;;;19.60;1.00;;;;;;5045199;28;20421;-82
2023/07/26 11:00:38;;;;;;;73.10;15.43;;;19.60;1.00;;;;;;5082539;28;20399;-83
2023/07/26 11:03:04;;;;;;;76.00;5.67;;;19.40;1.00;;;;;;5082397;28;20922;-83
2023/07/26 11:05:30;;;;;;;70.70;5.47;;;19.20;1.00;;;;;;5100554;28;20189;-82
2023/07/26 11:08:03;;;;;;;72.00;9.93;;;19.00;1.00;;;;;;5082405;28;20194;-82
2023/07/26 11:10:36;;;;;;;73.50;15.07;;;18.70;1.00;;;;;;5100552;28;20461;-82
2023/07/26 11:13:10;;;;;;;77.37;19.97;;;18.70;1.00;;;;;;5100801;28;20382;-82
2023/07/26 11:15:39;;;;;;;79.60;22.83;;;18.50;1.00;;;;;;5082075;28;20405;-82
2023/07/26 11:18:04;;;;;;;78.50;23.70;;;18.40;1.00;;;;;;5099780;28;20405;-82
2023/07/26 11:20:30;;;;;;;76.53;23.63;;;18.10;1.00;;;;;;5100522;28;20406;-82
2023/07/26 11:22:56;;;;;;;72.80;11.40;;;18.00;1.00;;;;;;5100336;28;20183;-82
2023/07/26 11:25:21;;;;;;;69.80;7.67;;;18.00;1.00;;;;;;5100587;28;20174;-82
2023/07/26 11:27:48;;;;;;;73.20;8.70;;;17.80;5.70;;;;;;5081370;28;20206;-81
2023/07/26 11:30:19;;;;;;;71.33;10.03;;;17.60;19.50;;;;;;5100358;28;20662;-83
2023/07/26 11:32:47;;;;;;;71.07;9.00;;;17.50;22.10;;;;;;5100742;28;20400;-82
2023/07/26 11:35:16;;;;;;;72.17;11.90;;;17.40;42.30;;;;;;5099165;28;20435;-81
2023/07/26 11:37:55;;;;;;;77.90;15.90;;;17.30;63.50;;;;;;5099502;28;20393;-80
2023/07/26 11:40:21;;;;;;;80.67;29.20;;;17.40;59.90;;;;;;5099210;28;20405;-80
2023/07/26 11:42:49;;;;;;;76.27;23.77;;;17.40;70.10;;;;;;5080942;28;20456;-80
2023/07/26 11:45:15;;;;;;;83.90;39.97;;;17.40;69.80;;;;;;5080628;28;20424;-81
2023/07/26 11:47:42;;;;;;;90.10;58.57;;;17.00;97.00;;;;;;5080848;28;20410;-81
2023/07/26 11:50:08;;;;;;;84.87;39.70;;;16.50;99.90;;;;;;5099574;28;20453;-81
2023/07/26 11:52:34;;;;;;;82.27;37.97;;;16.40;99.90;;;;;;5099656;28;20402;-81
2023/07/26 11:55:03;;;;;;;85.10;40.03;;;16.50;99.90;;;;;;5081040;28;20424;-82
2023/07/26 11:57:30;;;;;;;88.17;51.03;;;16.70;99.90;;;;;;5099506;28;20401;-81
2023/07/26 12:00:01;;;;;;;86.00;42.13;;;16.70;99.90;;;;;;5099207;28;20444;-81
2023/07/26 12:02:27;;;;;;;86.73;43.07;;;16.80;99.90;;;;;;5099430;28;20757;-83
2023/07/26 12:05:18;;;;;;;92.80;46.47;;;17.20;99.90;;;;;;5081633;28;20501;-83
2023/07/26 12:07:49;;;;;;;82.13;34.57;;;17.70;99.90;;;;;;5099805;28;20409;-83
2023/07/26 12:10:34;;;;;;;89.40;53.17;;;17.80;99.90;;;;;;5099810;28;20448;-84
2023/07/26 12:13:01;;;;;;;85.00;31.60;;;18.30;99.90;;;;;;5100256;28;20869;-84
2023/07/26 12:15:27;;;;;;;83.17;36.57;;;18.80;94.10;;;;;;5083425;28;20940;-83
2023/07/26 12:17:59;;;;;;;83.53;43.23;;;18.90;87.60;;;;;;5100390;28;20438;-83
2023/07/26 12:20:26;;;;;;;84.03;38.77;;;18.90;77.20;;;;;;5100980;28;20861;-84
2023/07/26 12:22:53;;;;;;;87.20;44.20;;;19.20;85.50;;;;;;5083601;28;20420;-84
2023/07/26 12:25:19;;;;;;;77.10;17.57;;;19.90;90.00;;;;;;5082583;28;20516;-83
2023/07/26 12:27:48;;;;;;;72.60;7.23;;;20.20;58.30;;;;;;5082765;28;20406;-84
2023/07/26 12:30:15;;;;;;;70.20;6.20;;;20.40;34.30;;;;;;5082375;28;20459;-83